createdAt,value
2018-11-29T00:00:37.607Z,101011.70
2018-11-29T00:08:58.615Z,101018.81
2018-11-29T00:17:20.175Z,100988.20
2018-11-29T00:25:40.685Z,100998.79
2018-11-29T00:34:01.735Z,101020.97
2018-11-29T00:42:22.722Z,101019.64
2018-11-29T00:50:43.708Z,101016.25
2018-11-29T00:59:04.808Z,101011.00
2018-11-29T01:07:25.821Z,100992.80
2018-11-29T01:15:46.826Z,100986.78
2018-11-29T01:24:07.816Z,100998.79
2018-11-29T01:32:28.823Z,100997.28
2018-11-29T01:40:49.831Z,100987.88
2018-11-29T01:49:10.854Z,100984.62
2018-11-29T01:57:31.881Z,100984.00
2018-11-29T02:05:52.909Z,100984.34
2018-11-29T02:14:13.930Z,100980.25
2018-11-29T02:22:34.942Z,100977.94
2018-11-29T02:30:55.952Z,100979.65
2018-11-29T02:39:16.937Z,100970.23
2018-11-29T02:47:38.037Z,100968.97
2018-11-29T02:55:59.048Z,100961.33
2018-11-29T03:04:20.055Z,100974.34
2018-11-29T03:12:41.048Z,100972.80
2018-11-29T03:21:02.075Z,100966.43
2018-11-29T03:29:23.085Z,100971.12
2018-11-29T03:37:44.099Z,100968.02
2018-11-29T03:46:05.130Z,100960.03
2018-11-29T03:54:26.148Z,100968.09
2018-11-29T04:02:47.211Z,100958.63
2018-11-29T04:11:08.906Z,100956.44
2018-11-29T04:19:29.311Z,100951.52
2018-11-29T04:27:50.308Z,100951.02
2018-11-29T04:36:11.315Z,100953.48
2018-11-29T04:44:32.372Z,100932.20
2018-11-29T04:52:53.596Z,100934.44
2018-11-29T05:01:14.620Z,100930.30
2018-11-29T05:09:35.694Z,100921.77
2018-11-29T05:17:56.736Z,100914.09
2018-11-29T05:26:17.824Z,100887.00
2018-11-29T05:34:38.815Z,100893.67
2018-11-29T05:42:59.819Z,100892.30
2018-11-29T05:51:20.823Z,100891.02
2018-11-29T05:59:41.835Z,100876.80
2018-11-29T06:08:02.844Z,100874.61
2018-11-29T06:16:23.828Z,100872.47
2018-11-29T06:24:44.831Z,100861.11
2018-11-29T06:33:05.858Z,100867.44
2018-11-29T06:41:26.872Z,100858.39
2018-11-29T06:49:47.929Z,100856.47
2018-11-29T06:58:08.922Z,100852.22
2018-11-29T07:06:29.917Z,100853.13
2018-11-29T07:14:50.927Z,100841.93
2018-11-29T07:23:11.996Z,100844.41
2018-11-29T07:31:33.004Z,100832.34
2018-11-29T07:39:54.024Z,100827.36
2018-11-29T07:48:15.027Z,100818.39
2018-11-29T07:56:36.016Z,100814.48
2018-11-29T08:04:57.188Z,100812.39
2018-11-29T08:13:18.942Z,100808.52
2018-11-29T08:21:40.714Z,100800.55
2018-11-29T08:30:02.521Z,100805.30
2018-11-29T08:38:23.854Z,100800.92
2018-11-29T08:46:45.014Z,100785.59
2018-11-29T08:55:06.048Z,100784.47
2018-11-29T09:03:27.079Z,100783.77
2018-11-29T09:11:48.132Z,100799.34
2018-11-29T09:20:09.166Z,100800.09
2018-11-29T09:28:30.211Z,100811.79
2018-11-29T09:36:51.243Z,100816.14
2018-11-29T09:45:12.319Z,100823.70
2018-11-29T09:53:33.358Z,100814.81
2018-11-29T10:01:54.372Z,100809.92
2018-11-29T10:10:15.385Z,100799.83
2018-11-29T10:18:36.407Z,100784.73
2018-11-29T10:26:57.415Z,100774.03
2018-11-29T10:35:18.408Z,100738.05
2018-11-29T10:43:39.435Z,100723.07
2018-11-29T10:52:00.429Z,100714.00
2018-11-29T11:00:21.456Z,100700.68
2018-11-29T11:08:42.502Z,100699.03
2018-11-29T11:17:03.515Z,100651.11
2018-11-29T11:25:24.558Z,100634.20
2018-11-29T11:33:45.587Z,100644.36
2018-11-29T11:42:06.592Z,100670.23
2018-11-29T11:50:27.623Z,100693.94
2018-11-29T11:58:48.715Z,100674.99
2018-11-29T12:07:09.745Z,100660.37
2018-11-29T12:15:30.809Z,100658.86
2018-11-29T12:23:51.819Z,100634.53
2018-11-29T12:32:12.835Z,100566.06
2018-11-29T12:40:33.843Z,100524.99
2018-11-29T12:48:54.882Z,100488.98
2018-11-29T12:57:15.877Z,100446.48
2018-11-29T13:05:36.887Z,100434.29
2018-11-29T13:13:57.952Z,100398.90
2018-11-29T13:22:19.067Z,100440.47
2018-11-29T13:30:40.084Z,100579.20
2018-11-29T13:39:01.116Z,100538.16
2018-11-29T13:47:22.124Z,100522.67
2018-11-29T13:55:43.164Z,100502.25
2018-11-29T14:04:04.176Z,100486.39
2018-11-29T14:12:25.160Z,100447.68
2018-11-29T14:20:46.184Z,100422.06
2018-11-29T14:29:07.219Z,100415.97
2018-11-29T14:37:28.227Z,100373.92
2018-11-29T14:45:49.223Z,100359.75
2018-11-29T14:54:10.251Z,100341.89
2018-11-29T15:02:31.267Z,100328.36
2018-11-29T15:10:52.263Z,100322.40
2018-11-29T15:19:13.355Z,100321.48
2018-11-29T15:27:34.349Z,100365.76
2018-11-29T15:35:55.372Z,100382.81
2018-11-29T15:44:16.359Z,100371.76
2018-11-29T15:52:37.387Z,100373.98
2018-11-29T16:00:58.397Z,100390.48
2018-11-29T16:09:19.522Z,100386.56
2018-11-29T16:17:40.527Z,100412.48
2018-11-29T16:26:01.530Z,100411.50
2018-11-29T16:34:22.520Z,100415.35
2018-11-29T16:42:43.870Z,100389.83
2018-11-29T16:51:04.902Z,100370.16
2018-11-29T16:59:25.903Z,100374.97
2018-11-29T17:07:46.897Z,100385.73
2018-11-29T17:16:07.885Z,100374.88
2018-11-29T17:24:28.919Z,100385.55
2018-11-29T17:32:50.002Z,100398.34
2018-11-29T17:41:11.026Z,100401.05
2018-11-29T17:49:32.016Z,100404.06
2018-11-29T17:57:53.027Z,100385.36
2018-11-29T18:06:14.032Z,100397.35
2018-11-29T18:14:35.025Z,100398.55
2018-11-29T18:22:56.031Z,100413.09
2018-11-29T18:31:17.059Z,100433.27
2018-11-29T18:39:38.067Z,100441.75
2018-11-29T18:47:59.090Z,100442.16
2018-11-29T18:56:20.095Z,100425.05
2018-11-29T19:04:41.108Z,100414.45
2018-11-29T19:13:02.111Z,100413.50
2018-11-29T19:21:23.131Z,100402.36
2018-11-29T19:29:44.143Z,100402.09
2018-11-29T19:38:05.190Z,100400.05
2018-11-29T19:46:26.208Z,100397.65
2018-11-29T19:54:47.219Z,100393.26
2018-11-29T20:03:08.252Z,100394.20
2018-11-29T20:11:29.267Z,100384.23
2018-11-29T20:19:50.256Z,100400.31
2018-11-29T20:28:11.591Z,100408.96
2018-11-29T20:36:32.607Z,100411.30
2018-11-29T20:44:53.597Z,100413.81
2018-11-29T20:53:14.610Z,100418.09
2018-11-29T21:01:35.611Z,100402.67
2018-11-29T21:09:56.647Z,100405.98
2018-11-29T21:18:17.663Z,100407.31
2018-11-29T21:26:38.664Z,100404.03
2018-11-29T21:34:59.674Z,100412.92
2018-11-29T21:43:20.673Z,100422.22
2018-11-29T21:51:41.701Z,100425.53
2018-11-29T22:00:02.760Z,100430.30
2018-11-29T22:08:23.751Z,100426.32
2018-11-29T22:16:44.774Z,100421.42
2018-11-29T22:25:05.811Z,100433.25
2018-11-29T22:33:26.826Z,100430.77
2018-11-29T22:41:47.854Z,100414.80
2018-11-29T22:50:08.840Z,100406.70
2018-11-29T22:58:29.867Z,100406.46
2018-11-29T23:06:50.880Z,100410.36
2018-11-29T23:15:11.918Z,100417.40
2018-11-29T23:23:32.946Z,100405.19
2018-11-29T23:31:53.955Z,100403.52
2018-11-29T23:40:14.980Z,100388.73
2018-11-29T23:48:36.010Z,100398.53
2018-11-29T23:56:57.001Z,100383.55
